createdAt,value
2023-02-28T00:01:28.826Z,103010.56
2023-02-28T00:03:56.980Z,103009.88
2023-02-28T00:06:25.148Z,103008.31
2023-02-28T00:08:52.934Z,103006.63
2023-02-28T00:11:22.609Z,103004.66
2023-02-28T00:13:50.471Z,103009.31
2023-02-28T00:16:20.515Z,103013.78
2023-02-28T00:18:49.468Z,103012.25
2023-02-28T00:21:17.552Z,103006.19
2023-02-28T00:23:45.835Z,103001.28
2023-02-28T00:26:13.792Z,103009.16
2023-02-28T00:28:42.879Z,102991.16
2023-02-28T00:31:10.664Z,103005.78
2023-02-28T00:33:38.466Z,103003.09
2023-02-28T00:36:08.391Z,103006.59
2023-02-28T00:38:36.149Z,103017.28
2023-02-28T00:41:05.945Z,103010.25
2023-02-28T00:43:35.205Z,102999.28
2023-02-28T00:46:05.689Z,103014.88
2023-02-28T00:48:33.760Z,103014.03
2023-02-28T00:51:01.761Z,103015.88
2023-02-28T00:53:29.836Z,103009.81
2023-02-28T00:55:57.630Z,103009.81
2023-02-28T00:58:25.333Z,103014.44
2023-02-28T01:00:53.711Z,103015.44
2023-02-28T01:03:24.463Z,103010.22
2023-02-28T01:05:54.223Z,102993.94
2023-02-28T01:08:22.188Z,103012.91
2023-02-28T01:10:49.958Z,103018.81
2023-02-28T01:13:18.579Z,103025.13
2023-02-28T01:15:51.144Z,103020.63
2023-02-28T01:18:18.954Z,103021.59
2023-02-28T01:20:48.161Z,103023.44
2023-02-28T01:23:15.929Z,103017.97
2023-02-28T01:25:43.721Z,103013.75
2023-02-28T01:28:11.460Z,103027.22
2023-02-28T01:30:39.156Z,103028.91
2023-02-28T01:33:06.854Z,103022.00
2023-02-28T01:35:35.071Z,103027.91
2023-02-28T01:38:20.402Z,103027.06
2023-02-28T01:40:48.921Z,103015.84
2023-02-28T01:43:24.239Z,103021.31
2023-02-28T01:45:52.845Z,103027.63
2023-02-28T01:48:23.102Z,103015.97
2023-02-28T01:50:51.691Z,103004.28
2023-02-28T01:53:23.818Z,103020.31
2023-02-28T01:55:55.026Z,103013.44
2023-02-28T01:58:23.324Z,103008.25
2023-02-28T02:00:51.438Z,103004.72
2023-02-28T02:03:22.361Z,102998.69
2023-02-28T02:05:50.181Z,102998.81
2023-02-28T02:08:24.316Z,102997.00
2023-02-28T02:10:55.109Z,102993.50
2023-02-28T02:13:47.395Z,102987.31
2023-02-28T02:16:30.204Z,102995.19
2023-02-28T02:19:13.417Z,102983.81
2023-02-28T02:22:08.179Z,102992.66
2023-02-28T02:25:00.816Z,102983.09
2023-02-28T02:27:49.807Z,102974.25
2023-02-28T02:30:43.145Z,102976.06
2023-02-28T02:33:38.377Z,102970.47
2023-02-28T02:36:15.055Z,102978.75
2023-02-28T02:38:51.749Z,102969.06
2023-02-28T02:41:24.657Z,102968.22
2023-02-28T02:43:54.982Z,102972.69
2023-02-28T02:46:27.649Z,102978.88
2023-02-28T02:48:59.378Z,102987.84
2023-02-28T02:51:30.325Z,102981.81
2023-02-28T02:54:04.170Z,102974.66
2023-02-28T02:56:35.377Z,102988.13
2023-02-28T02:59:06.343Z,102989.38
2023-02-28T03:01:36.826Z,102992.75
2023-02-28T03:04:08.850Z,102984.88
2023-02-28T03:06:38.123Z,102994.69
2023-02-28T03:09:06.436Z,102992.31
2023-02-28T03:11:35.046Z,103000.56
2023-02-28T03:14:37.470Z,102989.91
2023-02-28T03:17:22.953Z,102990.03
2023-02-28T03:20:00.836Z,102984.72
2023-02-28T03:22:50.589Z,102984.72
2023-02-28T03:25:29.110Z,102991.03
2023-02-28T03:28:05.556Z,102987.38
2023-02-28T03:30:41.623Z,102975.03
2023-02-28T03:33:15.027Z,102983.03
2023-02-28T03:35:46.592Z,102981.19
2023-02-28T03:38:21.563Z,102986.53
2023-02-28T03:40:53.145Z,102985.69
2023-02-28T03:43:30.258Z,102981.38
2023-02-28T03:46:00.970Z,102987.69
2023-02-28T03:48:34.865Z,102986.69
2023-02-28T03:51:05.384Z,102983.88
2023-02-28T03:53:37.728Z,102984.84
2023-02-28T03:56:11.359Z,102987.50
2023-02-28T03:58:45.315Z,102982.47
2023-02-28T04:01:19.001Z,102987.50
2023-02-28T04:03:46.841Z,102988.53
2023-02-28T04:06:18.815Z,102990.47
2023-02-28T04:08:48.179Z,102993.97
2023-02-28T04:11:22.363Z,102997.63
2023-02-28T04:13:50.348Z,102997.63
2023-02-28T04:16:33.393Z,102994.97
2023-02-28T04:19:04.025Z,102995.81
2023-02-28T04:21:32.174Z,102995.81
2023-02-28T04:24:01.773Z,102990.47
2023-02-28T04:26:31.857Z,102996.66
2023-02-28T04:28:59.640Z,102987.09
2023-02-28T04:31:28.017Z,103002.13
2023-02-28T04:33:56.153Z,103007.44
2023-02-28T04:36:24.219Z,102999.59
2023-02-28T04:38:52.428Z,102992.56
2023-02-28T04:41:21.745Z,103003.22
2023-02-28T04:43:49.435Z,103000.56
2023-02-28T04:46:18.237Z,103006.03
2023-02-28T04:48:46.607Z,103013.03
2023-02-28T04:51:16.136Z,103011.22
2023-02-28T04:53:44.921Z,103006.03
2023-02-28T04:56:14.255Z,102999.97
2023-02-28T04:58:43.781Z,103000.69
2023-02-28T05:01:20.540Z,103009.66
2023-02-28T05:03:49.056Z,103004.47
2023-02-28T05:06:17.355Z,103001.94
2023-02-28T05:08:45.231Z,103001.94
2023-02-28T05:11:18.429Z,103000.13
2023-02-28T05:13:47.948Z,103002.91
2023-02-28T05:16:16.077Z,103010.91
2023-02-28T05:18:45.571Z,103013.56
2023-02-28T05:21:31.704Z,103012.72
2023-02-28T05:24:01.657Z,103017.22
2023-02-28T05:26:29.851Z,103023.38
2023-02-28T05:28:59.106Z,103015.41
2023-02-28T05:31:27.065Z,103018.06
2023-02-28T05:33:55.032Z,103024.38
2023-02-28T05:36:23.244Z,103016.63
2023-02-28T05:38:51.698Z,103023.78
2023-02-28T05:41:21.243Z,103020.28
2023-02-28T05:43:49.678Z,103021.97
2023-02-28T05:46:18.964Z,103024.75
2023-02-28T05:48:49.264Z,103023.06
2023-02-28T05:51:17.555Z,103018.84
2023-02-28T05:53:45.430Z,103037.38
2023-02-28T05:56:13.122Z,103004.63
2023-02-28T05:58:40.831Z,103023.91
2023-02-28T06:01:25.464Z,103024.06
2023-02-28T06:03:53.855Z,103019.88
2023-02-28T06:06:21.518Z,103021.34
2023-02-28T06:08:49.281Z,103025.19
2023-02-28T06:11:17.015Z,103028.31
2023-02-28T06:13:44.755Z,103019.25
2023-02-28T06:16:13.783Z,103025.28
2023-02-28T06:18:42.893Z,103026.81
2023-02-28T06:21:10.643Z,103031.97
2023-02-28T06:23:38.431Z,103037.97
2023-02-28T06:26:06.635Z,103032.06
2023-02-28T06:28:34.482Z,103027.88
2023-02-28T06:31:07.261Z,103024.84
2023-02-28T06:33:35.208Z,103032.19
2023-02-28T06:36:04.753Z,103048.22
2023-02-28T06:38:32.696Z,103041.34
2023-02-28T06:41:02.047Z,103041.03
2023-02-28T06:43:32.321Z,103044.25
2023-02-28T06:46:02.518Z,103044.09
2023-02-28T06:48:30.483Z,103045.63
2023-02-28T06:51:06.160Z,103041.94
2023-02-28T06:53:34.478Z,103045.13
2023-02-28T06:56:06.565Z,103043.00
2023-02-28T06:58:34.572Z,103046.91
2023-02-28T07:01:02.277Z,103056.16
2023-02-28T07:03:29.975Z,103051.34
2023-02-28T07:05:58.278Z,103050.69
2023-02-28T07:08:28.578Z,103051.34
2023-02-28T07:10:57.112Z,103055.69
2023-02-28T07:13:25.570Z,103067.19
2023-02-28T07:15:57.521Z,103072.53
2023-02-28T07:18:25.933Z,103076.44
2023-02-28T07:20:54.024Z,103073.75
2023-02-28T07:23:22.423Z,103080.19
2023-02-28T07:25:52.228Z,103086.38
2023-02-28T07:28:19.978Z,103077.66
2023-02-28T07:30:49.077Z,103085.53
2023-02-28T07:33:17.258Z,103085.53
2023-02-28T07:35:45.291Z,103083.13
2023-02-28T07:38:14.605Z,103082.16
2023-02-28T07:40:42.364Z,103082.03
2023-02-28T07:43:11.486Z,103080.34
2023-02-28T07:45:39.320Z,103083.84
2023-02-28T07:48:07.741Z,103079.34
2023-02-28T07:50:36.001Z,103080.91
2023-02-28T07:53:03.862Z,103087.22
2023-02-28T07:55:31.626Z,103086.38
2023-02-28T07:57:59.843Z,103088.31
2023-02-28T08:00:30.023Z,103099.84
2023-02-28T08:02:57.781Z,103096.19
2023-02-28T08:05:25.600Z,103091.00
2023-02-28T08:07:54.317Z,103099.00
2023-02-28T08:10:22.057Z,103096.31
2023-02-28T08:12:49.858Z,103090.16
2023-02-28T08:15:17.839Z,103098.13
2023-02-28T08:17:47.009Z,103096.44
2023-02-28T08:20:14.877Z,103094.88
2023-02-28T08:22:44.802Z,103092.94
2023-02-28T08:25:15.675Z,103090.28
2023-02-28T08:27:43.685Z,103092.94
2023-02-28T08:30:13.263Z,103093.78
2023-02-28T08:32:41.463Z,103092.94
2023-02-28T08:35:11.531Z,103094.88
2023-02-28T08:37:39.363Z,103095.75
2023-02-28T08:40:08.617Z,103093.06
2023-02-28T08:42:36.472Z,103094.50
2023-02-28T08:45:04.518Z,103087.03
2023-02-28T08:47:32.277Z,103081.25
2023-02-28T08:49:59.964Z,103087.41
2023-02-28T08:52:29.052Z,103086.31
2023-02-28T08:54:56.950Z,103085.34
2023-02-28T08:57:26.884Z,103082.53
2023-02-28T08:59:54.626Z,103085.06
2023-02-28T09:02:22.371Z,103091.25
2023-02-28T09:04:50.093Z,103078.84
2023-02-28T09:07:17.778Z,103078.59
2023-02-28T09:09:56.641Z,103091.31
2023-02-28T09:12:25.037Z,103092.25
2023-02-28T09:14:52.848Z,103074.19
2023-02-28T09:17:20.800Z,103084.25
2023-02-28T09:19:50.190Z,103083.59
2023-02-28T09:22:18.010Z,103078.13
2023-02-28T09:24:47.089Z,103087.13
2023-02-28T09:27:14.854Z,103082.78
2023-02-28T09:29:42.689Z,103076.72
2023-02-28T09:32:10.940Z,103075.59
2023-02-28T09:34:39.886Z,103076.97
2023-02-28T09:37:07.717Z,103078.66
2023-02-28T09:39:35.534Z,103070.66
2023-02-28T09:42:08.661Z,103082.97
2023-02-28T09:44:40.101Z,103079.03
2023-02-28T09:47:15.138Z,103074.94
2023-02-28T09:49:47.231Z,103082.81
2023-02-28T09:52:20.503Z,103075.94
2023-02-28T09:54:48.415Z,103079.00
2023-02-28T09:57:28.018Z,103076.16
2023-02-28T10:00:11.340Z,103064.03
2023-02-28T10:03:00.980Z,103064.19
2023-02-28T10:05:32.637Z,103065.75
2023-02-28T10:08:09.667Z,103069.31
2023-02-28T10:10:40.479Z,103073.47
2023-02-28T10:13:21.350Z,103062.50
2023-02-28T10:15:52.300Z,103069.28
2023-02-28T10:18:26.617Z,103067.59
2023-02-28T10:20:56.817Z,103062.81
2023-02-28T10:23:30.184Z,103066.75
2023-02-28T10:26:02.271Z,103053.94
2023-02-28T10:28:32.941Z,103051.41
2023-02-28T10:31:01.344Z,103057.88
2023-02-28T10:33:31.999Z,103055.06
2023-02-28T10:36:00.977Z,103055.22
2023-02-28T10:38:30.227Z,103044.81
2023-02-28T10:41:06.833Z,103042.56
2023-02-28T10:43:36.849Z,103045.38
2023-02-28T10:46:07.364Z,103058.84
2023-02-28T10:48:37.913Z,103058.00
2023-02-28T10:51:08.946Z,103042.97
2023-02-28T10:53:57.682Z,103048.03
2023-02-28T10:56:28.885Z,103039.19
2023-02-28T10:59:00.286Z,103046.06
2023-02-28T11:01:39.448Z,103032.31
2023-02-28T11:04:19.922Z,103044.53
2023-02-28T11:06:48.348Z,103029.91
2023-02-28T11:09:25.447Z,103035.41
2023-02-28T11:11:53.976Z,103034.28
2023-02-28T11:14:26.117Z,103035.53
2023-02-28T11:16:55.138Z,103027.25
2023-02-28T11:19:27.638Z,103027.81
2023-02-28T11:21:58.735Z,103029.78
2023-02-28T11:24:32.415Z,103031.31
2023-02-28T11:27:00.293Z,103021.47
2023-02-28T11:29:31.953Z,103012.47
2023-02-28T11:32:06.237Z,103020.91
2023-02-28T11:34:34.681Z,103018.66
2023-02-28T11:37:05.874Z,103024.69
2023-02-28T11:39:34.603Z,103019.16
2023-02-28T11:42:17.050Z,103005.56
2023-02-28T11:44:57.404Z,103007.56
2023-02-28T11:47:35.116Z,103005.19
2023-02-28T11:50:22.559Z,103007.75
2023-02-28T11:52:54.385Z,102999.72
2023-02-28T11:55:27.564Z,103004.00
2023-02-28T11:58:07.779Z,102999.53
2023-02-28T12:00:55.149Z,102995.09
2023-02-28T12:03:31.053Z,103001.44
2023-02-28T12:06:09.524Z,103002.31
2023-02-28T12:08:49.315Z,102995.88
2023-02-28T12:11:29.138Z,102992.13
2023-02-28T12:14:24.288Z,102988.06
2023-02-28T12:17:05.696Z,102993.69
2023-02-28T12:19:44.600Z,102986.81
2023-02-28T12:22:29.172Z,103002.44
2023-02-28T12:25:25.914Z,102986.56
2023-02-28T12:27:55.173Z,102976.84
2023-02-28T12:30:26.561Z,102978.69
2023-02-28T12:33:00.232Z,102979.81
2023-02-28T12:35:35.706Z,102982.19
2023-02-28T12:38:08.136Z,102974.19
2023-02-28T12:40:47.093Z,102976.84
2023-02-28T12:43:18.309Z,102976.16
2023-02-28T12:45:50.814Z,102964.16
2023-02-28T12:48:26.244Z,102966.00
2023-02-28T12:50:54.200Z,102961.91
2023-02-28T12:53:29.782Z,102962.75
2023-02-28T12:56:11.588Z,102954.56
2023-02-28T12:58:45.234Z,102958.22
2023-02-28T13:01:38.465Z,102941.19
2023-02-28T13:04:32.214Z,102946.53
2023-02-28T13:07:17.843Z,102937.38
2023-02-28T13:09:54.742Z,102936.41
2023-02-28T13:12:23.809Z,102930.59
2023-02-28T13:14:52.287Z,102919.59
2023-02-28T13:17:22.302Z,102934.06
2023-02-28T13:20:01.336Z,102932.38
2023-02-28T13:22:41.872Z,102929.56
2023-02-28T13:25:42.984Z,102929.56
2023-02-28T13:28:12.370Z,102935.59
2023-02-28T13:31:06.046Z,102926.56
2023-02-28T13:33:35.029Z,102916.03
2023-02-28T13:36:11.312Z,102923.59
2023-02-28T13:38:42.444Z,102919.09
2023-02-28T13:41:48.423Z,102915.88
2023-02-28T13:44:19.227Z,102921.06
2023-02-28T13:47:26.697Z,102914.03
2023-02-28T13:49:55.013Z,102914.03
2023-02-28T13:52:26.694Z,102911.91
2023-02-28T13:55:26.365Z,102909.38
2023-02-28T13:58:13.910Z,102900.38
2023-02-28T14:01:02.119Z,102901.06
2023-02-28T14:03:47.031Z,102900.06
2023-02-28T14:06:24.710Z,102896.94
2023-02-28T14:09:00.984Z,102902.28
2023-02-28T14:11:32.999Z,102899.16
2023-02-28T14:14:02.190Z,102897.31
2023-02-28T14:16:40.302Z,102900.06
2023-02-28T14:19:14.791Z,102897.66
2023-02-28T14:21:54.564Z,102895.97
2023-02-28T14:24:45.527Z,102902.81
2023-02-28T14:27:31.800Z,102890.84
2023-02-28T14:30:47.348Z,102889.06
2023-02-28T14:33:45.503Z,102892.84
2023-02-28T14:36:15.949Z,102889.72
2023-02-28T14:38:48.153Z,102887.06
2023-02-28T14:41:24.132Z,102890.19
2023-02-28T14:43:55.785Z,102867.53
2023-02-28T14:46:28.322Z,102886.28
2023-02-28T14:48:56.672Z,102877.78
2023-02-28T14:51:25.911Z,102879.75
2023-02-28T14:53:59.409Z,102880.53
2023-02-28T14:56:32.977Z,102879.13
2023-02-28T14:59:00.710Z,102870.88
2023-02-28T15:01:28.588Z,102877.00
2023-02-28T15:04:04.783Z,102869.22
2023-02-28T15:06:33.870Z,102873.72
2023-02-28T15:09:19.475Z,102879.38
2023-02-28T15:11:51.964Z,102883.22
2023-02-28T15:14:22.269Z,102876.34
2023-02-28T15:16:54.655Z,102880.16
2023-02-28T15:19:26.343Z,102875.13
2023-02-28T15:21:59.832Z,102876.13
2023-02-28T15:24:37.106Z,102880.94
2023-02-28T15:27:08.642Z,102870.69
2023-02-28T15:29:45.209Z,102875.22
2023-02-28T15:32:28.294Z,102882.56
2023-02-28T15:34:56.875Z,102881.88
2023-02-28T15:37:39.743Z,102880.19
2023-02-28T15:40:15.138Z,102891.06
2023-02-28T15:42:45.656Z,102880.88
2023-02-28T15:45:30.828Z,102881.16
2023-02-28T15:48:12.288Z,102881.81
2023-02-28T15:50:42.221Z,102878.66
2023-02-28T15:53:15.802Z,102878.91
2023-02-28T15:55:43.963Z,102876.84
2023-02-28T15:58:14.920Z,102874.38
2023-02-28T16:00:50.477Z,102859.34
2023-02-28T16:03:29.115Z,102874.09
2023-02-28T16:06:28.113Z,102879.59
2023-02-28T16:08:55.884Z,102872.66
2023-02-28T16:11:24.142Z,102875.28
2023-02-28T16:13:54.377Z,102866.19
2023-02-28T16:16:25.565Z,102872.28
2023-02-28T16:18:54.056Z,102875.38
2023-02-28T16:21:21.851Z,102880.50
2023-02-28T16:23:49.586Z,102872.72
2023-02-28T16:26:23.383Z,102870.34
2023-02-28T16:28:53.457Z,102883.22
2023-02-28T16:31:22.087Z,102876.97
2023-02-28T16:33:49.862Z,102873.22
2023-02-28T16:36:19.925Z,102879.03
2023-02-28T16:38:47.772Z,102881.19
2023-02-28T16:41:19.973Z,102883.31
2023-02-28T16:43:50.377Z,102881.66
2023-02-28T16:46:20.595Z,102896.88
2023-02-28T16:48:52.132Z,102894.34
2023-02-28T16:51:20.257Z,102899.00
2023-02-28T16:53:48.229Z,102899.31
2023-02-28T16:56:19.182Z,102896.09
2023-02-28T16:58:47.704Z,102899.94
2023-02-28T17:01:16.091Z,102894.72
2023-02-28T17:03:45.325Z,102899.25
2023-02-28T17:06:19.988Z,102911.09
2023-02-28T17:08:48.182Z,102910.41
2023-02-28T17:11:15.908Z,102910.56
2023-02-28T17:13:43.622Z,102908.88
2023-02-28T17:16:20.253Z,102910.84
2023-02-28T17:18:49.473Z,102920.56
2023-02-28T17:21:17.970Z,102925.06
2023-02-28T17:23:45.865Z,102925.22
2023-02-28T17:26:18.486Z,102927.69
2023-02-28T17:28:46.192Z,102927.84
2023-02-28T17:31:14.597Z,102936.72
2023-02-28T17:33:42.550Z,102941.06
2023-02-28T17:36:15.958Z,102950.47
2023-02-28T17:38:44.125Z,102947.69
2023-02-28T17:41:12.921Z,102952.06
2023-02-28T17:43:41.234Z,102959.19
2023-02-28T17:46:18.706Z,102959.59
2023-02-28T17:48:46.573Z,102956.13
2023-02-28T17:51:17.248Z,102949.09
2023-02-28T17:53:45.202Z,102969.53
2023-02-28T17:56:15.189Z,102975.50
2023-02-28T17:58:43.063Z,102969.75
2023-02-28T18:01:10.896Z,102971.06
2023-02-28T18:03:38.736Z,102973.50
2023-02-28T18:06:07.325Z,102964.25
2023-02-28T18:08:37.044Z,102971.31
2023-02-28T18:11:04.901Z,102970.44
2023-02-28T18:13:32.598Z,102973.72
2023-02-28T18:16:00.481Z,102973.41
2023-02-28T18:18:28.550Z,102972.06
2023-02-28T18:20:56.462Z,102971.97
2023-02-28T18:23:24.196Z,102969.00
2023-02-28T18:25:54.078Z,102976.41
2023-02-28T18:28:21.799Z,102966.63
2023-02-28T18:30:49.476Z,102974.13
2023-02-28T18:33:17.534Z,102971.22
2023-02-28T18:35:45.470Z,102967.84
2023-02-28T18:38:16.000Z,102970.34
2023-02-28T18:40:44.901Z,102963.06
2023-02-28T18:43:15.134Z,102954.91
2023-02-28T18:45:43.273Z,102960.28
2023-02-28T18:48:11.050Z,102964.75
2023-02-28T18:50:39.738Z,102962.00
2023-02-28T18:53:07.466Z,102966.06
2023-02-28T18:55:35.375Z,102961.28
2023-02-28T18:58:03.223Z,102965.84
2023-02-28T19:00:32.426Z,102961.41
2023-02-28T19:03:00.315Z,102962.66
2023-02-28T19:05:30.996Z,102959.59
2023-02-28T19:07:58.771Z,102964.72
2023-02-28T19:10:26.537Z,102971.38
2023-02-28T19:12:54.279Z,102972.50
2023-02-28T19:15:22.133Z,102974.50
2023-02-28T19:17:51.246Z,102968.59
2023-02-28T19:20:19.824Z,102972.44
2023-02-28T19:22:47.554Z,102974.56
2023-02-28T19:25:15.332Z,102974.03
2023-02-28T19:27:43.701Z,102984.88
2023-02-28T19:30:12.726Z,102970.41
2023-02-28T19:32:40.523Z,102984.63
2023-02-28T19:35:10.333Z,102981.25
2023-02-28T19:37:39.275Z,102985.22
2023-02-28T19:40:08.769Z,102986.38
2023-02-28T19:42:36.858Z,102971.22
2023-02-28T19:45:05.536Z,102974.72
2023-02-28T19:47:33.273Z,102993.00
2023-02-28T19:50:02.263Z,102995.00
2023-02-28T19:52:31.332Z,102995.28
2023-02-28T19:54:59.094Z,102997.28
2023-02-28T19:57:26.998Z,103002.31
2023-02-28T19:59:54.706Z,103002.47
2023-02-28T20:02:23.086Z,102989.69
2023-02-28T20:04:52.063Z,102997.56
2023-02-28T20:07:21.201Z,102999.84
2023-02-28T20:09:50.416Z,103002.53
2023-02-28T20:12:26.144Z,103007.31
2023-02-28T20:14:55.997Z,102996.06
2023-02-28T20:17:24.298Z,102996.22
2023-02-28T20:19:52.063Z,103003.56
2023-02-28T20:22:19.827Z,103004.69
2023-02-28T20:24:50.901Z,103003.00
2023-02-28T20:27:18.648Z,103003.16
2023-02-28T20:29:46.378Z,103003.28
2023-02-28T20:32:14.227Z,103004.28
2023-02-28T20:34:42.187Z,103003.44
2023-02-28T20:37:09.893Z,103008.09
2023-02-28T20:39:37.684Z,103001.22
2023-02-28T20:42:07.299Z,103005.72
2023-02-28T20:44:35.045Z,103007.69
2023-02-28T20:47:03.721Z,102997.13
2023-02-28T20:49:31.503Z,103000.25
2023-02-28T20:51:59.296Z,102994.34
2023-02-28T20:54:28.679Z,102994.34
2023-02-28T20:56:56.405Z,102994.34
2023-02-28T20:59:26.285Z,102999.69
2023-02-28T21:01:56.242Z,103001.66
2023-02-28T21:04:24.053Z,102998.31
2023-02-28T21:06:51.947Z,102997.63
2023-02-28T21:09:20.334Z,102991.19
2023-02-28T21:11:48.301Z,102999.75
2023-02-28T21:14:17.666Z,102995.53
2023-02-28T21:16:46.934Z,102994.56
2023-02-28T21:19:14.752Z,103002.44
2023-02-28T21:21:44.973Z,102989.50
2023-02-28T21:24:14.016Z,103000.88
2023-02-28T21:26:44.354Z,102975.19
2023-02-28T21:29:13.484Z,102999.19
2023-02-28T21:31:41.547Z,103002.88
2023-02-28T21:34:13.329Z,103007.50
2023-02-28T21:36:45.610Z,103004.00
2023-02-28T21:39:16.308Z,103012.00
2023-02-28T21:41:44.292Z,103005.13
2023-02-28T21:44:18.757Z,103000.75
2023-02-28T21:46:47.504Z,102994.03
2023-02-28T21:49:17.427Z,103002.88
2023-02-28T21:51:45.565Z,102995.00
2023-02-28T21:54:13.885Z,102993.31
2023-02-28T21:56:42.136Z,102991.78
2023-02-28T21:59:09.865Z,102986.59
2023-02-28T22:01:39.470Z,102992.91
2023-02-28T22:04:08.863Z,102989.41
2023-02-28T22:06:40.898Z,102983.34
2023-02-28T22:09:10.543Z,102986.16
2023-02-28T22:11:39.354Z,102988.84
2023-02-28T22:14:09.321Z,102995.31
2023-02-28T22:16:50.634Z,102985.47
2023-02-28T22:19:20.068Z,102985.63
2023-02-28T22:21:49.843Z,102990.13
2023-02-28T22:24:20.566Z,102987.59
2023-02-28T22:26:50.450Z,102993.06
2023-02-28T22:29:18.288Z,102987.88
2023-02-28T22:31:46.449Z,102995.88
2023-02-28T22:34:14.704Z,102996.72
2023-02-28T22:36:43.132Z,103003.06
2023-02-28T22:39:13.053Z,103003.19
2023-02-28T22:41:41.229Z,103003.47
2023-02-28T22:44:09.249Z,103011.63
2023-02-28T22:46:37.306Z,103011.22
2023-02-28T22:49:06.675Z,103018.25
2023-02-28T22:51:35.168Z,103005.88
2023-02-28T22:54:04.445Z,103010.53
2023-02-28T22:56:33.845Z,103017.69
2023-02-28T22:59:02.503Z,103011.38
2023-02-28T23:01:32.719Z,102992.25
2023-02-28T23:04:02.758Z,102991.41
2023-02-28T23:06:33.515Z,103004.47
2023-02-28T23:09:03.285Z,103008.28
2023-02-28T23:11:35.165Z,103020.34
2023-02-28T23:14:02.963Z,103016.84
2023-02-28T23:16:32.791Z,103011.50
2023-02-28T23:19:02.834Z,103016.84
2023-02-28T23:21:31.104Z,103014.31
2023-02-28T23:23:59.159Z,103022.31
2023-02-28T23:26:26.857Z,103011.50
2023-02-28T23:28:56.139Z,103014.31
2023-02-28T23:31:24.087Z,103014.31
2023-02-28T23:33:52.084Z,103019.78
2023-02-28T23:36:20.097Z,103018.09
2023-02-28T23:38:49.417Z,103021.63
2023-02-28T23:41:18.076Z,103014.59
2023-02-28T23:43:46.523Z,103010.38
2023-02-28T23:46:16.556Z,103012.06
2023-02-28T23:48:44.279Z,103007.84
2023-02-28T23:51:14.753Z,103016.84
2023-02-28T23:53:44.946Z,103015.28
2023-02-28T23:56:15.202Z,103018.09
2023-02-28T23:58:43.718Z,103023.72
